Time;durP1;ratioP1;P1;durP2;ratioP2;P2;SDS_P1;SDS_P2;PMS_P1;PMS_P2;Temp;Humidity;BMP_temperature;BMP_pressure;BME280_temperature;BME280_humidity;BME280_pressure;Samples;Min_cycle;Max_cycle;Signal;HPM_P1;HPM_P2
2023/03/10 00:00:44;;;;;;;24.98;20.15;;;10.90;99.90;;;;;;5074400;28;20177;-84
2023/03/10 00:03:10;;;;;;;18.98;15.82;;;11.00;99.90;;;;;;5073142;28;20565;-84
2023/03/10 00:05:37;;;;;;;19.67;16.67;;;11.20;99.90;;;;;;5074474;28;20169;-83
2023/03/10 00:08:04;;;;;;;18.13;16.27;;;11.30;99.90;;;;;;5074618;28;20224;-83
2023/03/10 00:10:29;;;;;;;22.38;17.42;;;11.30;99.90;;;;;;5074193;28;20205;-82
2023/03/10 00:12:55;;;;;;;27.27;21.60;;;11.30;99.90;;;;;;5072838;28;20287;-84
2023/03/10 00:15:22;;;;;;;24.67;18.83;;;11.40;99.90;;;;;;5072960;28;20185;-84
2023/03/10 00:17:54;;;;;;;21.75;19.15;;;11.30;99.90;;;;;;5074486;28;20193;-84
2023/03/10 00:20:20;;;;;;;23.05;17.73;;;11.30;99.90;;;;;;5073120;28;20289;-83
2023/03/10 00:22:46;;;;;;;22.40;19.48;;;11.40;99.90;;;;;;5074210;28;20195;-84
2023/03/10 00:25:12;;;;;;;25.80;18.10;;;11.30;99.90;;;;;;5072743;28;20192;-84
2023/03/10 00:27:38;;;;;;;22.03;17.60;;;11.40;99.90;;;;;;5072678;28;20576;-83
2023/03/10 00:30:04;;;;;;;21.30;17.77;;;11.50;99.90;;;;;;5073988;28;20173;-84
2023/03/10 00:32:30;;;;;;;22.17;17.42;;;11.40;99.90;;;;;;5074181;28;20193;-85
2023/03/10 00:34:56;;;;;;;19.07;16.00;;;11.40;99.90;;;;;;5074084;28;20306;-82
2023/03/10 00:37:21;;;;;;;23.70;17.88;;;11.40;99.90;;;;;;5074111;28;20197;-84
2023/03/10 00:39:51;;;;;;;21.13;17.67;;;11.40;99.90;;;;;;5072541;28;20179;-83
2023/03/10 00:42:18;;;;;;;19.75;16.85;;;11.40;99.90;;;;;;5073723;28;20670;-83
2023/03/10 00:44:43;;;;;;;21.90;18.00;;;11.50;99.90;;;;;;5072560;28;20565;-83
2023/03/10 00:47:09;;;;;;;21.63;17.60;;;11.50;99.90;;;;;;5073571;28;20220;-84
2023/03/10 00:49:35;;;;;;;25.40;17.90;;;11.50;99.90;;;;;;5072394;28;20185;-83
2023/03/10 00:52:00;;;;;;;22.10;17.37;;;11.50;99.90;;;;;;5072934;28;20557;-84
2023/03/10 00:54:26;;;;;;;23.23;19.10;;;11.60;99.90;;;;;;5072538;28;20184;-82
2023/03/10 00:56:52;;;;;;;21.83;17.77;;;11.60;99.90;;;;;;5072438;28;20692;-84
2023/03/10 00:59:17;;;;;;;22.00;18.17;;;11.60;99.90;;;;;;5073734;28;20173;-82
2023/03/10 01:01:43;;;;;;;24.40;17.77;;;11.50;99.90;;;;;;5072339;28;20199;-85
2023/03/10 01:04:13;;;;;;;25.57;18.93;;;11.40;99.90;;;;;;5072394;28;20177;-83
2023/03/10 01:06:40;;;;;;;20.52;16.50;;;11.40;99.90;;;;;;5072236;28;20523;-84
2023/03/10 01:09:06;;;;;;;21.55;17.02;;;11.40;99.90;;;;;;5073593;28;20518;-84
2023/03/10 01:11:32;;;;;;;18.90;15.40;;;11.40;99.90;;;;;;5072271;28;20206;-84
2023/03/10 01:14:00;;;;;;;20.00;16.50;;;11.40;99.90;;;;;;5073433;28;20498;-85
2023/03/10 01:16:27;;;;;;;18.80;15.93;;;11.40;99.90;;;;;;5072282;28;20242;-85
2023/03/10 01:18:53;;;;;;;19.35;16.45;;;11.50;99.90;;;;;;5072123;28;20201;-84
2023/03/10 01:21:23;;;;;;;19.15;17.10;;;11.50;99.90;;;;;;5072089;28;20227;-84
2023/03/10 01:23:49;;;;;;;21.38;16.70;;;11.50;99.90;;;;;;5073318;28;20665;-84
2023/03/10 01:26:16;;;;;;;19.03;15.40;;;11.50;99.90;;;;;;5071978;28;20209;-85
2023/03/10 01:28:42;;;;;;;21.38;16.80;;;11.50;99.90;;;;;;5072616;28;20962;-83
2023/03/10 01:31:07;;;;;;;22.00;17.53;;;11.50;99.90;;;;;;5073709;28;20226;-84
2023/03/10 01:33:35;;;;;;;21.50;17.97;;;11.50;99.90;;;;;;5073290;28;20448;-84
2023/03/10 01:36:06;;;;;;;22.40;18.58;;;11.40;99.90;;;;;;5074216;28;20541;-84
2023/03/10 01:38:31;;;;;;;19.85;16.77;;;11.40;99.90;;;;;;5077084;28;20229;-84
2023/03/10 01:40:57;;;;;;;25.13;17.37;;;11.40;99.90;;;;;;5075917;28;20235;-84
2023/03/10 01:43:28;;;;;;;25.33;18.40;;;11.30;99.90;;;;;;5075749;28;20240;-83
2023/03/10 01:45:53;;;;;;;21.80;17.88;;;11.30;99.90;;;;;;5075662;28;20200;-84
2023/03/10 01:48:21;;;;;;;23.07;18.60;;;11.20;99.90;;;;;;5075790;28;20713;-83
2023/03/10 01:50:51;;;;;;;26.30;18.63;;;11.10;99.90;;;;;;5076827;28;20216;-83
2023/03/10 01:53:19;;;;;;;24.08;19.63;;;11.00;99.90;;;;;;5075840;28;20201;-84
2023/03/10 01:55:51;;;;;;;27.48;18.95;;;11.00;99.90;;;;;;5076757;28;20177;-84
2023/03/10 01:58:19;;;;;;;26.98;19.42;;;10.90;99.90;;;;;;5076794;28;20185;-84
2023/03/10 02:00:45;;;;;;;27.23;19.50;;;10.90;99.90;;;;;;5075460;28;20619;-84
2023/03/10 02:03:31;;;;;;;24.00;19.97;;;10.90;99.90;;;;;;5076969;28;20197;-84
2023/03/10 02:06:05;;;;;;;27.95;19.58;;;10.80;99.90;;;;;;5075597;28;20177;-84
2023/03/10 02:08:37;;;;;;;23.20;17.95;;;10.70;99.90;;;;;;5076577;28;20271;-84
2023/03/10 02:11:04;;;;;;;24.13;18.92;;;10.60;99.90;;;;;;5075303;28;20177;-83
2023/03/10 02:13:29;;;;;;;22.73;18.33;;;10.50;99.90;;;;;;5076250;28;20247;-84
2023/03/10 02:15:56;;;;;;;22.63;19.37;;;10.50;99.90;;;;;;5076450;28;20173;-84
2023/03/10 02:18:22;;;;;;;23.52;16.75;;;10.40;99.90;;;;;;5076646;28;20193;-84
2023/03/10 02:20:53;;;;;;;23.00;16.65;;;10.40;99.90;;;;;;5076371;28;20208;-84
2023/03/10 02:23:32;;;;;;;20.52;14.30;;;10.30;99.90;;;;;;5075118;28;20201;-84
2023/03/10 02:26:12;;;;;;;29.42;18.48;;;10.10;99.90;;;;;;5075021;28;20206;-84
2023/03/10 02:28:38;;;;;;;20.88;14.88;;;9.90;99.90;;;;;;5074932;28;20250;-82
2023/03/10 02:31:05;;;;;;;24.60;16.77;;;9.80;99.90;;;;;;5075085;28;20185;-83
2023/03/10 02:33:32;;;;;;;21.67;16.38;;;9.80;99.90;;;;;;5074830;28;20204;-84
2023/03/10 02:36:02;;;;;;;21.08;15.93;;;9.80;99.90;;;;;;5074909;28;20638;-84
2023/03/10 02:38:28;;;;;;;22.70;17.80;;;9.90;99.90;;;;;;5075168;28;20681;-84
2023/03/10 02:40:56;;;;;;;22.43;16.50;;;9.80;99.90;;;;;;5076206;28;20271;-84
2023/03/10 02:43:25;;;;;;;24.65;17.42;;;9.80;99.90;;;;;;5076616;28;20193;-84
2023/03/10 02:45:54;;;;;;;22.58;16.88;;;9.80;99.90;;;;;;5074522;28;20189;-84
2023/03/10 02:48:25;;;;;;;21.77;16.80;;;9.80;99.90;;;;;;5075860;28;20200;-84
2023/03/10 02:50:51;;;;;;;24.58;17.98;;;9.80;99.90;;;;;;5075908;28;20169;-83
2023/03/10 02:53:20;;;;;;;21.50;16.90;;;9.70;99.90;;;;;;5074497;28;20568;-84
2023/03/10 02:55:46;;;;;;;22.40;16.33;;;9.70;99.90;;;;;;5074393;28;20272;-83
2023/03/10 02:58:12;;;;;;;21.02;17.08;;;9.70;99.90;;;;;;5075603;28;20212;-84
2023/03/10 03:00:44;;;;;;;22.20;16.80;;;9.70;99.90;;;;;;5074438;28;20173;-83
2023/03/10 03:03:10;;;;;;;22.83;16.42;;;9.70;99.90;;;;;;5075671;28;20768;-84
2023/03/10 03:05:36;;;;;;;24.73;16.95;;;9.80;99.90;;;;;;5074334;28;20263;-82
2023/03/10 03:08:03;;;;;;;22.40;16.20;;;9.80;99.90;;;;;;5074312;28;20354;-83
2023/03/10 03:10:29;;;;;;;23.45;17.60;;;9.80;99.90;;;;;;5075427;28;20181;-84
2023/03/10 03:12:55;;;;;;;25.10;16.90;;;9.80;99.90;;;;;;5075612;28;20244;-84
2023/03/10 03:15:21;;;;;;;22.67;16.33;;;9.90;99.90;;;;;;5074133;28;20828;-84
2023/03/10 03:17:47;;;;;;;19.85;14.63;;;10.00;99.90;;;;;;5074111;28;20224;-84
2023/03/10 03:20:13;;;;;;;20.37;16.20;;;9.90;99.90;;;;;;5075279;28;20211;-83
2023/03/10 03:22:45;;;;;;;19.50;15.38;;;9.90;99.90;;;;;;5075481;28;20517;-83
2023/03/10 03:25:13;;;;;;;23.75;16.45;;;9.80;99.90;;;;;;5073851;28;20265;-84
2023/03/10 03:27:39;;;;;;;22.17;15.38;;;9.80;99.90;;;;;;5075362;28;20649;-83
2023/03/10 03:30:06;;;;;;;23.77;16.40;;;9.70;99.90;;;;;;5073825;28;20182;-82
2023/03/10 03:32:33;;;;;;;20.92;16.60;;;9.60;99.90;;;;;;5073576;28;20208;-84
2023/03/10 03:34:59;;;;;;;24.35;16.45;;;9.70;99.90;;;;;;5075001;28;20222;-83
2023/03/10 03:37:25;;;;;;;24.40;16.73;;;9.70;99.90;;;;;;5075313;28;20653;-83
2023/03/10 03:39:50;;;;;;;17.97;15.27;;;9.50;99.90;;;;;;5074901;28;20709;-82
2023/03/10 03:42:16;;;;;;;21.20;16.13;;;9.50;99.90;;;;;;5075474;28;20234;-83
2023/03/10 03:44:42;;;;;;;24.37;17.17;;;9.40;99.90;;;;;;5075411;28;20177;-83
2023/03/10 03:47:09;;;;;;;20.67;17.20;;;9.40;99.90;;;;;;5074025;28;20225;-84
2023/03/10 03:49:38;;;;;;;21.73;16.92;;;9.40;99.90;;;;;;5075863;28;20177;-84
2023/03/10 03:52:05;;;;;;;44.40;29.10;;;9.30;99.90;;;;;;5073273;28;20231;-84
2023/03/10 03:54:31;;;;;;;48.13;29.08;;;9.30;99.90;;;;;;5073343;28;20223;-83
2023/03/10 03:56:57;;;;;;;53.40;30.30;;;9.20;99.90;;;;;;5074657;28;20201;-83
2023/03/10 03:59:23;;;;;;;35.60;23.43;;;9.20;99.90;;;;;;5073985;28;20489;-84
2023/03/10 04:01:49;;;;;;;33.23;22.83;;;9.10;99.90;;;;;;5074580;28;20915;-85
2023/03/10 04:04:15;;;;;;;31.08;20.67;;;9.00;99.90;;;;;;5073167;28;20211;-83
2023/03/10 04:06:41;;;;;;;31.53;20.10;;;8.90;99.90;;;;;;5074209;28;20615;-84
2023/03/10 04:09:09;;;;;;;27.30;20.10;;;8.90;99.90;;;;;;5073064;28;20181;-83
2023/03/10 04:11:35;;;;;;;24.27;16.52;;;8.80;99.90;;;;;;5074295;28;20462;-84
2023/03/10 04:14:00;;;;;;;25.90;18.00;;;8.80;99.90;;;;;;5072955;28;20705;-84
2023/03/10 04:16:26;;;;;;;29.80;21.03;;;8.90;99.90;;;;;;5074283;28;20421;-83
2023/03/10 04:18:52;;;;;;;22.93;14.90;;;8.90;99.90;;;;;;5072905;28;20627;-84
2023/03/10 04:21:18;;;;;;;30.17;20.77;;;8.90;99.90;;;;;;5074165;28;20608;-84
2023/03/10 04:23:43;;;;;;;26.20;18.90;;;9.00;99.90;;;;;;5072737;28;20212;-84
2023/03/10 04:26:09;;;;;;;42.67;25.00;;;9.10;99.90;;;;;;5072680;28;20173;-83
2023/03/10 04:28:36;;;;;;;45.63;28.83;;;9.10;99.90;;;;;;5072741;28;20193;-84
2023/03/10 04:31:02;;;;;;;33.63;23.35;;;9.00;99.90;;;;;;5072795;28;20188;-84
2023/03/10 04:33:28;;;;;;;32.13;22.67;;;9.00;99.90;;;;;;5073853;28;20203;-83
2023/03/10 04:35:54;;;;;;;27.87;18.97;;;9.00;99.90;;;;;;5073903;28;20535;-85
2023/03/10 04:38:22;;;;;;;30.60;18.27;;;9.00;99.90;;;;;;5072563;28;20197;-85
2023/03/10 04:40:53;;;;;;;23.05;17.17;;;9.00;99.90;;;;;;5072665;28;20306;-84
2023/03/10 04:43:19;;;;;;;23.70;16.30;;;9.10;99.90;;;;;;5074410;28;20200;-86
2023/03/10 04:45:47;;;;;;;28.10;17.80;;;9.20;99.90;;;;;;5073702;28;20642;-85
2023/03/10 04:48:13;;;;;;;25.30;18.02;;;9.20;99.90;;;;;;5072384;28;20217;-85
2023/03/10 04:50:38;;;;;;;25.47;18.03;;;9.30;99.90;;;;;;5072412;28;20223;-85
2023/03/10 04:53:04;;;;;;;24.93;17.23;;;9.30;99.90;;;;;;5073514;28;20283;-85
2023/03/10 04:55:30;;;;;;;24.53;17.00;;;9.50;99.90;;;;;;5072345;28;20189;-85
2023/03/10 04:57:56;;;;;;;23.53;15.77;;;9.50;99.90;;;;;;5073858;28;20558;-84
2023/03/10 05:00:22;;;;;;;18.43;13.60;;;9.50;99.90;;;;;;5073434;28;20848;-84
2023/03/10 05:02:47;;;;;;;20.13;15.67;;;9.50;99.90;;;;;;5073762;28;20201;-85
2023/03/10 05:05:13;;;;;;;18.33;14.60;;;9.60;99.90;;;;;;5070348;28;20410;-84
2023/03/10 05:07:39;;;;;;;26.57;16.50;;;9.60;99.90;;;;;;5069803;28;20220;-84
2023/03/10 05:10:06;;;;;;;26.15;16.90;;;9.60;99.90;;;;;;5071010;28;20184;-85
2023/03/10 05:12:32;;;;;;;28.75;16.25;;;9.60;99.90;;;;;;5075956;28;20185;-87
2023/03/10 05:14:57;;;;;;;23.07;16.03;;;9.60;99.90;;;;;;5076350;28;20232;-84
2023/03/10 05:17:23;;;;;;;21.87;15.20;;;9.70;99.90;;;;;;5077951;28;20442;-84
2023/03/10 05:19:49;;;;;;;20.83;14.83;;;9.70;99.90;;;;;;5075970;28;20173;-84
2023/03/10 05:22:15;;;;;;;16.67;14.10;;;9.70;99.90;;;;;;5076117;28;20201;-86
2023/03/10 05:24:41;;;;;;;18.47;14.00;;;9.70;99.90;;;;;;5075975;28;20464;-85
2023/03/10 05:27:07;;;;;;;19.45;15.30;;;9.70;99.90;;;;;;5076106;28;20220;-85
2023/03/10 05:29:33;;;;;;;19.15;15.57;;;9.70;99.90;;;;;;5076071;28;20553;-85
2023/03/10 05:31:59;;;;;;;23.50;15.53;;;9.80;99.90;;;;;;5077324;28;20208;-84
2023/03/10 05:34:25;;;;;;;18.10;13.43;;;9.70;99.90;;;;;;5077359;28;20185;-86
2023/03/10 05:36:52;;;;;;;20.02;14.18;;;9.70;99.90;;;;;;5076144;28;20633;-85
2023/03/10 05:39:18;;;;;;;18.25;14.45;;;9.80;99.90;;;;;;5074528;28;20198;-83
2023/03/10 05:41:43;;;;;;;22.13;14.80;;;9.90;99.90;;;;;;5075129;28;20264;-84
2023/03/10 05:44:09;;;;;;;17.23;14.20;;;10.10;99.90;;;;;;5073707;28;20269;-83
2023/03/10 05:46:35;;;;;;;17.73;12.60;;;10.20;99.90;;;;;;5074839;28;20543;-85
2023/03/10 05:49:00;;;;;;;18.13;13.63;;;10.20;99.90;;;;;;5074792;28;20456;-85
2023/03/10 05:51:26;;;;;;;18.73;14.20;;;10.10;99.90;;;;;;5074414;28;20185;-85
2023/03/10 05:53:52;;;;;;;19.13;14.27;;;10.10;99.90;;;;;;5075287;28;20271;-85
2023/03/10 05:56:18;;;;;;;17.60;13.13;;;10.00;99.90;;;;;;5075569;28;20291;-84
2023/03/10 05:58:45;;;;;;;18.55;13.40;;;9.90;99.90;;;;;;5067971;28;20206;-86
2023/03/10 06:01:11;;;;;;;16.80;13.35;;;9.90;99.90;;;;;;5055421;28;20320;-86
2023/03/10 06:03:37;;;;;;;20.88;14.13;;;9.90;99.90;;;;;;5068080;28;20304;-86
2023/03/10 06:06:05;;;;;;;15.80;14.20;;;9.90;99.90;;;;;;5066278;28;20276;-85
2023/03/10 06:08:32;;;;;;;17.00;14.07;;;10.00;99.90;;;;;;5067007;28;20205;-84
2023/03/10 06:10:58;;;;;;;15.48;13.00;;;9.90;99.90;;;;;;5063890;28;20184;-84
2023/03/10 06:13:24;;;;;;;18.98;12.70;;;9.90;99.90;;;;;;5069866;28;20233;-84
2023/03/10 06:15:56;;;;;;;17.13;13.77;;;9.90;99.90;;;;;;5065688;28;20665;-85
2023/03/10 06:18:21;;;;;;;16.48;12.25;;;9.80;99.90;;;;;;5070542;28;20610;-88
2023/03/10 06:20:47;;;;;;;17.73;12.70;;;9.70;99.90;;;;;;5060359;28;20173;-86
2023/03/10 06:23:15;;;;;;;14.80;12.63;;;9.70;99.90;;;;;;5071455;28;20452;-84
2023/03/10 06:25:41;;;;;;;20.30;13.60;;;9.70;99.90;;;;;;5073563;28;20785;-85
2023/03/10 06:28:06;;;;;;;15.10;12.00;;;9.70;99.90;;;;;;5069770;28;20307;-87
2023/03/10 06:30:32;;;;;;;18.20;12.90;;;9.80;99.90;;;;;;5070957;28;20426;-84
2023/03/10 06:32:59;;;;;;;17.47;13.60;;;9.70;99.90;;;;;;5073984;28;20231;-85
2023/03/10 06:35:26;;;;;;;16.90;13.38;;;9.80;99.90;;;;;;5070170;28;20468;-84
2023/03/10 06:37:52;;;;;;;26.25;16.75;;;9.80;99.90;;;;;;5074427;28;20292;-85
2023/03/10 06:40:17;;;;;;;17.87;12.70;;;9.80;99.90;;;;;;5072995;28;20276;-85
2023/03/10 06:42:43;;;;;;;16.53;12.87;;;9.80;99.90;;;;;;5069875;28;20449;-87
2023/03/10 06:45:13;;;;;;;14.30;12.07;;;9.90;99.90;;;;;;5072349;28;20177;-89
2023/03/10 06:47:39;;;;;;;15.70;12.65;;;10.00;99.90;;;;;;5075985;28;20220;-85
2023/03/10 06:50:06;;;;;;;15.90;12.90;;;10.00;99.90;;;;;;5071303;28;20188;-89
2023/03/10 06:52:33;;;;;;;15.77;12.15;;;10.00;99.90;;;;;;5072023;28;20209;-85
2023/03/10 06:55:00;;;;;;;13.32;11.05;;;10.10;99.90;;;;;;5073402;28;20189;-91
2023/03/10 06:57:26;;;;;;;16.65;13.60;;;10.10;99.90;;;;;;5054339;28;20201;-91
2023/03/10 06:59:52;;;;;;;16.92;13.07;;;10.20;99.90;;;;;;5060457;28;20185;-90
2023/03/10 07:02:18;;;;;;;14.23;12.23;;;10.30;99.90;;;;;;5064433;28;20209;-90
2023/03/10 07:04:45;;;;;;;14.10;12.60;;;10.40;99.90;;;;;;5062998;28;20308;-89
2023/03/10 07:07:12;;;;;;;14.50;12.18;;;10.50;99.90;;;;;;5062260;28;20228;-91
2023/03/10 07:09:37;;;;;;;15.13;11.73;;;10.70;99.90;;;;;;5054171;28;20670;-90
2023/03/10 07:12:03;;;;;;;15.10;12.10;;;10.70;99.90;;;;;;5053330;28;20213;-90
2023/03/10 07:14:29;;;;;;;15.40;12.60;;;10.80;99.90;;;;;;5055487;28;20230;-90
2023/03/10 07:16:55;;;;;;;15.30;11.83;;;10.90;99.90;;;;;;5059061;28;20430;-85
2023/03/10 07:19:21;;;;;;;13.60;12.17;;;11.00;99.90;;;;;;5055206;28;20184;-85
2023/03/10 07:21:47;;;;;;;18.33;12.68;;;10.90;99.90;;;;;;5057854;28;20442;-85
2023/03/10 07:24:12;;;;;;;14.83;12.70;;;11.00;99.90;;;;;;5071884;28;20208;-88
2023/03/10 07:26:38;;;;;;;15.03;12.43;;;11.10;99.90;;;;;;5072330;28;20576;-85
2023/03/10 07:29:04;;;;;;;15.43;12.80;;;11.20;99.90;;;;;;5067201;28;20198;-84
2023/03/10 07:31:29;;;;;;;15.50;12.10;;;11.40;99.90;;;;;;5054302;28;20223;-88
2023/03/10 07:33:55;;;;;;;14.30;12.80;;;11.50;99.90;;;;;;5071064;28;20205;-86
2023/03/10 07:36:21;;;;;;;13.93;11.80;;;11.60;99.90;;;;;;5068395;28;20198;-88
2023/03/10 07:38:48;;;;;;;17.00;13.13;;;11.70;99.90;;;;;;5066755;28;20214;-88
2023/03/10 07:41:16;;;;;;;18.47;13.70;;;11.70;99.90;;;;;;5058530;28;20417;-84
2023/03/10 07:43:42;;;;;;;16.60;13.70;;;11.80;99.90;;;;;;5059401;28;20455;-86
2023/03/10 07:46:10;;;;;;;21.50;13.80;;;11.80;99.90;;;;;;5060371;28;20423;-89
2023/03/10 07:48:37;;;;;;;18.20;14.40;;;11.90;99.90;;;;;;5070593;28;20439;-86
2023/03/10 07:51:02;;;;;;;20.67;14.80;;;12.00;99.90;;;;;;5071780;28;20491;-86
2023/03/10 07:53:29;;;;;;;16.63;14.30;;;12.10;99.90;;;;;;5072783;28;20982;-91
2023/03/10 07:55:55;;;;;;;19.53;14.13;;;12.20;99.90;;;;;;5072761;28;20169;-89
2023/03/10 07:58:20;;;;;;;18.70;14.33;;;12.40;99.90;;;;;;5069512;28;20456;-86
2023/03/10 08:00:56;;;;;;;17.67;14.43;;;12.60;99.90;;;;;;5062867;28;20414;-86
2023/03/10 08:03:25;;;;;;;18.37;14.20;;;12.80;99.90;;;;;;5058282;28;20458;-83
2023/03/10 08:05:51;;;;;;;19.70;13.23;;;12.80;99.90;;;;;;5057481;28;20461;-81
2023/03/10 08:08:18;;;;;;;19.63;16.57;;;12.90;99.90;;;;;;5065150;28;20481;-82
2023/03/10 08:10:43;;;;;;;22.00;17.30;;;13.00;99.90;;;;;;5062669;28;20448;-87
2023/03/10 08:13:09;;;;;;;19.17;14.77;;;12.90;99.90;;;;;;5060588;28;20477;-82
2023/03/10 08:15:37;;;;;;;20.93;15.67;;;12.90;99.90;;;;;;5063893;28;20173;-85
2023/03/10 08:18:04;;;;;;;19.90;15.03;;;12.90;99.90;;;;;;5065955;28;20580;-87
2023/03/10 08:20:31;;;;;;;21.13;15.17;;;12.90;99.90;;;;;;5063983;28;20426;-84
2023/03/10 08:22:57;;;;;;;21.90;15.20;;;12.90;99.90;;;;;;5061724;28;20462;-85
2023/03/10 08:25:22;;;;;;;22.20;15.10;;;13.00;99.90;;;;;;5064009;28;20850;-82
2023/03/10 08:27:48;;;;;;;21.03;13.97;;;12.90;99.90;;;;;;5067778;28;20469;-82
2023/03/10 08:30:14;;;;;;;17.77;12.67;;;12.90;99.90;;;;;;5061543;28;20193;-83
2023/03/10 08:32:40;;;;;;;12.20;10.90;;;12.90;99.90;;;;;;5068683;28;20461;-82
2023/03/10 08:35:07;;;;;;;14.50;13.00;;;12.90;99.90;;;;;;5065630;28;20433;-89
2023/03/10 08:37:32;;;;;;;26.67;24.27;;;12.90;99.90;;;;;;5062998;28;20449;-86
2023/03/10 08:39:59;;;;;;;13.83;11.23;;;13.00;99.90;;;;;;5078794;28;20567;-82
2023/03/10 08:42:25;;;;;;;14.10;12.60;;;13.10;99.90;;;;;;5058071;28;20286;-85
2023/03/10 08:44:54;;;;;;;12.10;10.60;;;13.20;99.90;;;;;;5065247;28;20454;-87
2023/03/10 08:47:22;;;;;;;13.30;11.07;;;13.20;99.90;;;;;;5066294;28;20489;-86
2023/03/10 08:49:48;;;;;;;13.93;10.40;;;13.30;99.90;;;;;;5066320;28;20421;-89
2023/03/10 08:52:13;;;;;;;15.30;11.37;;;13.30;99.90;;;;;;5066116;28;20445;-84
2023/03/10 08:54:39;;;;;;;17.03;11.40;;;13.40;99.90;;;;;;5065426;28;20862;-86
2023/03/10 08:57:05;;;;;;;13.17;11.23;;;13.50;99.90;;;;;;5063258;28;20295;-80
2023/03/10 08:59:30;;;;;;;13.33;11.10;;;13.60;99.90;;;;;;5059990;28;20173;-80
2023/03/10 09:01:56;;;;;;;13.47;10.70;;;13.60;99.90;;;;;;5062487;28;20720;-82
2023/03/10 09:04:22;;;;;;;11.87;10.63;;;13.60;99.90;;;;;;5065280;28;20304;-81
2023/03/10 09:06:47;;;;;;;11.40;10.17;;;13.70;99.90;;;;;;5061112;28;20212;-85
2023/03/10 09:09:13;;;;;;;13.80;11.93;;;13.70;99.90;;;;;;5069045;28;20192;-83
2023/03/10 09:11:40;;;;;;;15.10;11.30;;;13.70;99.90;;;;;;5064426;28;20185;-83
2023/03/10 09:14:08;;;;;;;16.90;11.90;;;13.70;99.90;;;;;;5061510;28;20225;-85
2023/03/10 09:16:33;;;;;;;13.43;11.70;;;13.70;99.90;;;;;;5065940;28;20430;-88
2023/03/10 09:19:00;;;;;;;15.90;10.90;;;13.70;99.90;;;;;;5068116;28;20508;-87
2023/03/10 09:21:27;;;;;;;11.47;10.27;;;13.80;99.90;;;;;;5067186;28;20187;-85
2023/03/10 09:23:53;;;;;;;14.90;11.20;;;13.80;99.90;;;;;;5070170;28;20547;-80
2023/03/10 09:26:19;;;;;;;12.93;10.97;;;13.80;99.90;;;;;;5062878;28;20512;-87
2023/03/10 09:28:48;;;;;;;12.43;10.57;;;13.80;99.90;;;;;;5072041;28;20485;-86
2023/03/10 09:31:20;;;;;;;16.00;10.97;;;13.90;99.90;;;;;;5069150;28;20857;-86
2023/03/10 09:33:46;;;;;;;11.00;9.77;;;13.90;99.90;;;;;;5080047;28;20429;-88
2023/03/10 09:36:12;;;;;;;12.00;10.10;;;14.00;99.90;;;;;;5059623;28;20447;-82
2023/03/10 09:38:38;;;;;;;14.50;10.60;;;14.00;99.90;;;;;;5063595;28;20453;-84
2023/03/10 09:41:19;;;;;;;13.70;10.97;;;14.00;99.90;;;;;;5063451;28;20186;-84
2023/03/10 09:43:54;;;;;;;15.60;11.77;;;14.10;99.90;;;;;;5081327;28;20454;-88
2023/03/10 09:46:22;;;;;;;11.63;10.43;;;14.20;99.90;;;;;;5065424;28;20437;-86
2023/03/10 09:48:54;;;;;;;13.43;11.57;;;14.20;99.90;;;;;;5070134;28;20464;-86
2023/03/10 09:51:23;;;;;;;14.93;11.50;;;14.30;99.90;;;;;;5062613;28;20482;-87
2023/03/10 09:54:08;;;;;;;12.00;10.80;;;14.30;99.90;;;;;;5060164;28;20454;-86
2023/03/10 09:56:35;;;;;;;14.50;12.50;;;14.30;99.90;;;;;;5058478;28;20529;-85
2023/03/10 09:59:06;;;;;;;11.13;9.97;;;14.30;99.90;;;;;;5067219;28;21503;-87
2023/03/10 10:01:33;;;;;;;12.03;10.30;;;14.20;99.90;;;;;;5066766;28;20927;-85
2023/03/10 10:04:09;;;;;;;11.07;9.00;;;14.20;99.90;;;;;;5069382;28;20535;-87
2023/03/10 10:06:45;;;;;;;13.00;9.73;;;14.20;99.90;;;;;;5069374;28;20453;-87
2023/03/10 10:09:21;;;;;;;11.83;10.40;;;14.10;99.90;;;;;;5063691;28;20426;-87
2023/03/10 10:11:47;;;;;;;12.70;9.90;;;14.20;99.90;;;;;;5061167;28;20430;-83
2023/03/10 10:14:14;;;;;;;15.50;11.10;;;14.10;99.90;;;;;;5063203;28;21199;-87
2023/03/10 10:17:14;;;;;;;11.40;9.73;;;14.20;99.90;;;;;;5061967;28;20185;-87
2023/03/10 10:19:40;;;;;;;14.90;12.67;;;14.20;99.90;;;;;;5061304;28;20430;-82
2023/03/10 10:22:34;;;;;;;14.67;12.27;;;14.20;99.90;;;;;;5063309;28;20792;-86
2023/03/10 10:25:09;;;;;;;18.93;14.80;;;14.30;99.90;;;;;;5059022;28;20215;-85
2023/03/10 10:27:39;;;;;;;19.83;12.50;;;14.40;99.90;;;;;;5060504;28;20562;-86
2023/03/10 10:30:36;;;;;;;13.27;11.00;;;14.40;99.90;;;;;;5065135;28;20442;-87
2023/03/10 10:33:09;;;;;;;14.43;10.70;;;14.40;99.90;;;;;;5059204;28;21190;-85
2023/03/10 10:35:41;;;;;;;13.83;10.97;;;14.40;99.90;;;;;;5052468;28;20466;-84
2023/03/10 10:38:10;;;;;;;13.37;11.27;;;14.50;99.90;;;;;;5060507;28;21169;-84
2023/03/10 10:40:50;;;;;;;14.10;11.97;;;14.60;99.90;;;;;;5064161;28;20406;-84
2023/03/10 10:43:18;;;;;;;11.30;10.10;;;14.70;99.90;;;;;;5062079;28;20549;-85
2023/03/10 10:45:54;;;;;;;10.33;9.33;;;14.80;99.90;;;;;;5062699;28;21004;-87
2023/03/10 10:48:40;;;;;;;13.27;10.20;;;14.80;99.90;;;;;;5075053;28;21001;-84
2023/03/10 10:51:18;;;;;;;14.10;10.60;;;15.00;99.90;;;;;;5062295;28;20484;-88
2023/03/10 10:53:44;;;;;;;15.00;10.57;;;15.10;99.90;;;;;;5091178;28;20835;-86
2023/03/10 10:56:15;;;;;;;11.90;10.70;;;15.20;99.90;;;;;;5060459;28;20433;-89
2023/03/10 10:58:58;;;;;;;15.33;10.90;;;15.30;99.90;;;;;;5062825;28;20527;-84
2023/03/10 11:01:24;;;;;;;12.67;9.17;;;15.30;99.90;;;;;;5062834;28;20467;-87
2023/03/10 11:04:05;;;;;;;10.37;9.10;;;15.30;99.90;;;;;;5065013;28;20547;-83
2023/03/10 11:06:33;;;;;;;11.17;9.17;;;15.40;99.90;;;;;;5063231;28;20458;-84
2023/03/10 11:09:04;;;;;;;10.80;8.83;;;15.50;99.90;;;;;;5060976;28;20464;-84
2023/03/10 11:11:58;;;;;;;14.50;9.83;;;15.50;99.90;;;;;;5059920;28;21070;-83
2023/03/10 11:14:38;;;;;;;12.50;9.40;;;15.60;99.90;;;;;;5057681;28;20477;-85
2023/03/10 11:17:27;;;;;;;9.90;8.70;;;15.60;99.90;;;;;;5067791;28;20704;-86
2023/03/10 11:19:56;;;;;;;13.30;8.63;;;15.60;99.90;;;;;;5076127;28;20471;-85
2023/03/10 11:22:27;;;;;;;13.23;11.00;;;15.70;99.90;;;;;;5061929;28;20466;-89
2023/03/10 11:25:19;;;;;;;14.87;9.83;;;15.60;99.90;;;;;;5057123;28;20463;-85
2023/03/10 11:28:08;;;;;;;12.77;9.60;;;15.60;99.90;;;;;;5058224;28;20481;-86
2023/03/10 11:30:40;;;;;;;9.13;7.90;;;15.50;99.90;;;;;;5058334;28;20439;-84
2023/03/10 11:33:22;;;;;;;15.03;10.10;;;15.40;99.90;;;;;;5047740;28;20445;-85
2023/03/10 11:36:13;;;;;;;9.57;7.70;;;15.50;99.90;;;;;;5061265;28;20480;-83
2023/03/10 11:38:44;;;;;;;13.23;11.23;;;15.50;99.90;;;;;;5056637;28;20490;-84
2023/03/10 11:41:18;;;;;;;13.47;10.00;;;15.60;99.90;;;;;;5052008;28;20422;-84
2023/03/10 11:43:53;;;;;;;13.47;10.37;;;15.70;99.90;;;;;;5064372;28;20464;-83
2023/03/10 11:46:24;;;;;;;12.53;9.03;;;15.80;99.90;;;;;;5068314;28;20436;-84
2023/03/10 11:49:06;;;;;;;11.80;10.37;;;15.90;99.90;;;;;;5065506;28;20723;-84
2023/03/10 11:51:38;;;;;;;14.37;12.20;;;15.90;99.90;;;;;;5059420;28;20791;-86
2023/03/10 11:54:30;;;;;;;10.87;8.50;;;16.00;99.90;;;;;;5072547;28;20468;-84
2023/03/10 11:56:57;;;;;;;15.13;12.90;;;16.00;99.90;;;;;;5061277;28;20458;-85
2023/03/10 11:59:29;;;;;;;9.80;5.40;;;16.10;99.90;;;;;;5063097;28;20929;-86
2023/03/10 12:01:59;;;;;;;9.87;5.20;;;16.10;99.90;;;;;;5059184;28;20510;-85
2023/03/10 12:04:28;;;;;;;7.50;5.27;;;16.00;99.90;;;;;;5064040;28;20434;-87
2023/03/10 12:07:07;;;;;;;5.30;4.80;;;16.10;99.90;;;;;;5056762;28;20482;-85
2023/03/10 12:09:41;;;;;;;5.60;4.80;;;16.10;99.90;;;;;;5061234;28;20709;-87
2023/03/10 12:12:13;;;;;;;7.20;3.67;;;16.20;99.90;;;;;;5054372;28;20830;-86
2023/03/10 12:14:41;;;;;;;7.37;4.03;;;16.40;99.90;;;;;;5056602;28;20521;-87
2023/03/10 12:17:12;;;;;;;6.93;4.90;;;16.70;99.90;;;;;;5057860;28;20465;-90
2023/03/10 12:20:16;;;;;;;7.47;5.53;;;16.90;99.90;;;;;;5053942;28;20981;-81
2023/03/10 12:22:52;;;;;;;7.43;5.90;;;17.10;99.90;;;;;;5027391;28;20462;-82
2023/03/10 12:25:31;;;;;;;4.00;3.60;;;17.30;99.90;;;;;;5054901;28;20442;-82
2023/03/10 12:28:15;;;;;;;8.00;5.57;;;17.40;99.90;;;;;;5052216;28;20828;-85
2023/03/10 12:31:13;;;;;;;7.23;4.73;;;17.50;99.90;;;;;;5058258;28;20943;-83
2023/03/10 12:33:45;;;;;;;6.60;4.73;;;17.10;99.90;;;;;;5052538;28;21795;-80
2023/03/10 12:36:18;;;;;;;6.47;4.43;;;16.90;99.90;;;;;;5051525;28;20801;-82
2023/03/10 12:38:58;;;;;;;6.40;4.77;;;17.00;99.90;;;;;;5053640;28;20462;-80
2023/03/10 12:41:27;;;;;;;5.80;4.30;;;17.10;99.90;;;;;;5049936;28;20536;-80